Time;durP1;ratioP1;P1;durP2;ratioP2;P2;SDS_P1;SDS_P2;PMS_P1;PMS_P2;Temp;Humidity;BMP_temperature;BMP_pressure;BME280_temperature;BME280_humidity;BME280_pressure;Samples;Min_cycle;Max_cycle;Signal;HPM_P1;HPM_P2
2023/09/12 00:00:06;;;;;;;0.77;0.50;;;23.90;76.20;;;;;;4961179;28;20051;-75
2023/09/12 00:02:32;;;;;;;0.60;0.60;;;24.00;75.30;;;;;;4976574;28;20521;-75
2023/09/12 00:04:57;;;;;;;0.80;0.80;;;23.90;75.40;;;;;;4961032;28;20065;-75
2023/09/12 00:07:23;;;;;;;0.70;0.70;;;24.00;75.50;;;;;;4960825;28;20042;-75
2023/09/12 00:09:48;;;;;;;0.70;0.70;;;24.00;75.60;;;;;;4962568;28;20794;-75
2023/09/12 00:12:14;;;;;;;0.65;0.65;;;23.90;75.70;;;;;;4962977;28;20330;-75
2023/09/12 00:14:40;;;;;;;0.77;0.77;;;23.90;75.70;;;;;;4960253;28;20053;-75
2023/09/12 00:17:06;;;;;;;0.60;0.60;;;24.00;76.60;;;;;;4967383;28;20039;-75
2023/09/12 00:19:31;;;;;;;0.50;0.50;;;24.00;75.70;;;;;;4961854;28;20062;-75
2023/09/12 00:21:57;;;;;;;0.65;0.65;;;24.00;75.70;;;;;;4966335;28;20074;-75
2023/09/12 00:24:22;;;;;;;0.70;0.70;;;23.90;75.80;;;;;;4965741;28;20045;-75
2023/09/12 00:26:48;;;;;;;0.80;0.80;;;23.90;75.60;;;;;;4946722;28;20093;-75
2023/09/12 00:29:13;;;;;;;0.80;0.80;;;23.90;75.50;;;;;;4963354;28;20603;-75
2023/09/12 00:31:39;;;;;;;1.75;0.57;;;23.90;75.50;;;;;;4621344;28;10000241;-75
2023/09/12 00:34:05;;;;;;;0.73;0.70;;;24.00;75.50;;;;;;4965015;28;20101;-75
2023/09/12 00:36:30;;;;;;;0.60;0.60;;;24.00;75.40;;;;;;4968377;28;20046;-75
2023/09/12 00:38:56;;;;;;;0.50;0.50;;;24.00;75.50;;;;;;4966403;28;20074;-75
2023/09/12 00:41:22;;;;;;;0.60;0.60;;;24.00;75.30;;;;;;4968767;28;20086;-75
2023/09/12 00:43:47;;;;;;;0.60;0.60;;;24.00;75.30;;;;;;4969615;28;20031;-75
2023/09/12 00:46:19;;;;;;;0.60;0.60;;;24.00;75.30;;;;;;4968724;28;20043;-75
2023/09/12 00:48:45;;;;;;;0.60;0.60;;;23.90;75.50;;;;;;4966265;28;20093;-75
2023/09/12 00:51:10;;;;;;;0.57;0.57;;;24.00;75.30;;;;;;4967294;28;20443;-75
2023/09/12 00:53:36;;;;;;;0.50;0.50;;;24.00;75.40;;;;;;4967753;28;20046;-74
2023/09/12 00:56:01;;;;;;;0.50;0.50;;;24.00;75.50;;;;;;4970688;28;20065;-75
2023/09/12 00:58:27;;;;;;;0.60;0.60;;;24.00;75.70;;;;;;4967883;28;20038;-75
2023/09/12 01:00:52;;;;;;;0.60;0.60;;;23.90;75.30;;;;;;4967959;28;20066;-75
2023/09/12 01:03:18;;;;;;;0.60;0.60;;;23.90;75.50;;;;;;4968332;28;20054;-75
2023/09/12 01:05:44;;;;;;;0.60;0.60;;;23.90;75.50;;;;;;4969585;28;20470;-75
2023/09/12 01:08:09;;;;;;;0.45;0.45;;;23.90;75.80;;;;;;4968719;28;20125;-75
2023/09/12 01:10:35;;;;;;;0.65;0.65;;;23.90;75.70;;;;;;4949418;28;20578;-75
2023/09/12 01:13:01;;;;;;;0.60;0.52;;;24.00;75.50;;;;;;4963949;28;20043;-75
2023/09/12 01:15:26;;;;;;;0.57;0.57;;;23.90;75.30;;;;;;4966089;28;20061;-75
2023/09/12 01:17:52;;;;;;;0.60;0.60;;;23.90;75.40;;;;;;4965964;28;20047;-74
2023/09/12 01:20:36;;;;;;;0.70;0.70;;;23.90;75.60;;;;;;4967581;28;20397;-75
2023/09/12 01:23:24;;;;;;;1.25;1.15;;;24.00;75.50;;;;;;4969885;28;20035;-74
2023/09/12 01:26:05;;;;;;;0.70;0.70;;;23.90;75.80;;;;;;4967340;28;20027;-74
2023/09/12 01:28:34;;;;;;;0.50;0.50;;;23.90;75.80;;;;;;4968447;28;20061;-74
2023/09/12 01:31:00;;;;;;;0.60;0.60;;;23.90;75.70;;;;;;4966396;28;20501;-74
2023/09/12 01:33:26;;;;;;;0.50;0.50;;;23.90;75.60;;;;;;4965133;28;20050;-74
2023/09/12 01:35:51;;;;;;;0.70;0.70;;;23.90;75.40;;;;;;4962874;28;20049;-74
2023/09/12 01:38:17;;;;;;;0.68;0.68;;;23.90;75.30;;;;;;4968401;28;20066;-74
2023/09/12 01:40:45;;;;;;;0.65;0.65;;;23.90;75.50;;;;;;4967968;28;20441;-74
2023/09/12 01:43:11;;;;;;;0.47;0.47;;;23.90;75.70;;;;;;4968341;28;20058;-74
2023/09/12 01:45:37;;;;;;;0.60;0.60;;;23.90;75.80;;;;;;4964594;28;20085;-74
2023/09/12 01:48:04;;;;;;;0.47;0.47;;;23.90;75.70;;;;;;4966601;28;20046;-74
2023/09/12 01:50:29;;;;;;;0.50;0.50;;;23.90;75.80;;;;;;4968525;28;20043;-74
2023/09/12 01:52:55;;;;;;;0.60;0.60;;;23.90;75.70;;;;;;4968440;28;20095;-74
2023/09/12 01:55:20;;;;;;;0.47;0.47;;;23.90;75.60;;;;;;4961488;28;20057;-74
2023/09/12 01:57:47;;;;;;;0.40;0.40;;;23.90;75.70;;;;;;4959680;28;20047;-74
2023/09/12 02:00:13;;;;;;;0.50;0.50;;;23.90;75.70;;;;;;4964761;28;20062;-74
2023/09/12 02:02:38;;;;;;;0.43;0.43;;;23.90;75.60;;;;;;4964746;28;20521;-74
2023/09/12 02:05:21;;;;;;;0.40;0.40;;;23.90;75.70;;;;;;4967197;28;20034;-74
2023/09/12 02:07:47;;;;;;;0.65;0.65;;;23.90;75.80;;;;;;4965639;28;20043;-74
2023/09/12 02:10:12;;;;;;;0.43;0.43;;;23.90;75.70;;;;;;4964962;28;20070;-74
2023/09/12 02:12:38;;;;;;;0.50;0.50;;;23.90;75.60;;;;;;4965562;28;20098;-74
2023/09/12 02:15:04;;;;;;;0.40;0.40;;;23.90;75.40;;;;;;4964422;28;20085;-74
2023/09/12 02:17:30;;;;;;;0.38;0.38;;;23.90;75.50;;;;;;4965783;28;20053;-74
2023/09/12 02:19:55;;;;;;;0.60;0.60;;;23.90;75.60;;;;;;4966081;28;20031;-74
2023/09/12 02:22:21;;;;;;;0.50;0.50;;;23.90;75.70;;;;;;4965855;28;20043;-74
2023/09/12 02:24:46;;;;;;;0.50;0.50;;;23.90;75.90;;;;;;4964395;28;20117;-74
2023/09/12 02:27:12;;;;;;;0.63;0.50;;;23.90;75.90;;;;;;4966220;28;20043;-74
2023/09/12 02:29:39;;;;;;;0.40;0.40;;;23.90;75.70;;;;;;4967029;28;20027;-74
2023/09/12 02:32:05;;;;;;;0.40;0.40;;;23.90;75.80;;;;;;4966052;28;20137;-74
2023/09/12 02:34:30;;;;;;;0.40;0.40;;;23.90;75.70;;;;;;4965741;28;20520;-74
2023/09/12 02:36:56;;;;;;;0.30;0.30;;;23.90;75.70;;;;;;4967342;28;20126;-74
2023/09/12 02:39:21;;;;;;;0.40;0.40;;;23.90;75.60;;;;;;4964682;28;20050;-74
2023/09/12 02:41:47;;;;;;;0.40;0.40;;;23.90;75.60;;;;;;4967370;28;20157;-75
2023/09/12 02:44:13;;;;;;;0.50;0.50;;;23.90;75.60;;;;;;4967464;28;20047;-74
2023/09/12 02:46:38;;;;;;;0.40;0.40;;;23.90;75.60;;;;;;4967954;28;20039;-74
2023/09/12 02:49:04;;;;;;;0.43;0.43;;;23.90;75.60;;;;;;4967103;28;20552;-74
2023/09/12 02:51:29;;;;;;;0.43;0.43;;;23.90;75.60;;;;;;4959648;28;20027;-74
2023/09/12 02:53:55;;;;;;;0.40;0.40;;;23.90;75.60;;;;;;4967493;28;20057;-74
2023/09/12 02:56:21;;;;;;;0.43;0.43;;;23.90;75.60;;;;;;4966272;28;20398;-74
2023/09/12 02:58:46;;;;;;;0.35;0.35;;;23.90;75.60;;;;;;4966919;28;20125;-74
2023/09/12 03:01:16;;;;;;;0.50;0.50;;;23.90;75.70;;;;;;4965199;28;20141;-74
2023/09/12 03:03:42;;;;;;;0.80;0.45;;;23.90;75.70;;;;;;4963859;28;20066;-74
2023/09/12 03:06:07;;;;;;;0.47;0.47;;;23.90;75.60;;;;;;4962478;28;20125;-74
2023/09/12 03:08:33;;;;;;;0.63;0.60;;;23.90;75.50;;;;;;4965305;28;20408;-74
2023/09/12 03:10:58;;;;;;;0.52;0.52;;;23.90;75.50;;;;;;4969006;28;20054;-74
2023/09/12 03:13:25;;;;;;;0.38;0.38;;;23.90;75.50;;;;;;4965291;28;20031;-74
2023/09/12 03:15:51;;;;;;;0.50;0.50;;;23.90;75.50;;;;;;4965777;28;20031;-74
2023/09/12 03:18:16;;;;;;;0.50;0.50;;;23.90;75.50;;;;;;4966054;28;20045;-74
2023/09/12 03:20:42;;;;;;;0.40;0.40;;;23.90;75.60;;;;;;4962022;28;20547;-74
2023/09/12 03:23:07;;;;;;;0.50;0.50;;;23.90;76.30;;;;;;4965745;28;20046;-74
2023/09/12 03:25:39;;;;;;;0.30;0.30;;;23.90;75.50;;;;;;4967808;28;20097;-74
2023/09/12 03:28:05;;;;;;;0.30;0.30;;;23.90;75.50;;;;;;4964127;28;20034;-74
2023/09/12 03:30:34;;;;;;;0.30;0.30;;;23.90;75.50;;;;;;4963984;28;20038;-74
2023/09/12 03:33:00;;;;;;;0.47;0.47;;;23.90;75.50;;;;;;4966287;28;20043;-74
2023/09/12 03:35:26;;;;;;;0.40;0.40;;;23.90;75.60;;;;;;4960468;28;20039;-74
2023/09/12 03:37:51;;;;;;;0.55;0.50;;;23.90;75.50;;;;;;4966153;28;20039;-74
2023/09/12 03:40:17;;;;;;;0.40;0.40;;;23.90;75.50;;;;;;4966584;28;20125;-74
2023/09/12 03:42:42;;;;;;;0.40;0.40;;;23.90;75.50;;;;;;4965009;28;20089;-74
2023/09/12 03:45:08;;;;;;;1.08;0.40;;;23.90;75.50;;;;;;4965445;28;20039;-74
2023/09/12 03:47:34;;;;;;;0.35;0.35;;;23.90;75.60;;;;;;4964132;28;20039;-74
2023/09/12 03:50:00;;;;;;;0.50;0.50;;;23.90;75.50;;;;;;4967022;28;20467;-74
2023/09/12 03:52:25;;;;;;;0.43;0.43;;;23.90;75.50;;;;;;4962822;28;20053;-74
2023/09/12 03:54:51;;;;;;;0.30;0.30;;;23.90;75.50;;;;;;4961744;28;20046;-74
2023/09/12 03:57:16;;;;;;;0.38;0.38;;;23.90;75.50;;;;;;4966674;28;20097;-74
2023/09/12 03:59:42;;;;;;;0.50;0.50;;;23.90;75.60;;;;;;4964162;28;20038;-74
2023/09/12 04:02:08;;;;;;;0.40;0.40;;;23.90;75.60;;;;;;4967101;28;20097;-74
2023/09/12 04:04:34;;;;;;;0.40;0.40;;;23.90;75.60;;;;;;4967675;28;20077;-74
2023/09/12 04:06:59;;;;;;;0.50;0.50;;;23.80;75.60;;;;;;4963174;28;20050;-74
2023/09/12 04:09:25;;;;;;;0.40;0.40;;;23.90;75.70;;;;;;4964915;28;20058;-74
2023/09/12 04:11:50;;;;;;;0.47;0.47;;;23.90;75.70;;;;;;4965960;28;20114;-74
2023/09/12 04:14:16;;;;;;;0.40;0.40;;;23.90;75.70;;;;;;4966227;28;20147;-74
2023/09/12 04:16:42;;;;;;;0.40;0.40;;;23.80;75.70;;;;;;4961073;28;20027;-74
2023/09/12 04:19:07;;;;;;;0.40;0.40;;;23.80;75.70;;;;;;4962026;28;20047;-74
2023/09/12 04:21:33;;;;;;;0.40;0.40;;;23.80;75.70;;;;;;4965146;28;20031;-74
2023/09/12 04:23:58;;;;;;;0.95;0.40;;;23.80;75.80;;;;;;4966456;28;20046;-74
2023/09/12 04:26:24;;;;;;;0.52;0.52;;;23.80;75.90;;;;;;4964551;28;20436;-74
2023/09/12 04:28:50;;;;;;;0.40;0.40;;;23.80;75.80;;;;;;4967432;28;20066;-74
2023/09/12 04:31:15;;;;;;;0.40;0.40;;;23.90;75.80;;;;;;4965986;28;20043;-74
2023/09/12 04:33:41;;;;;;;0.40;0.40;;;23.80;75.70;;;;;;4964577;28;20078;-74
2023/09/12 04:36:06;;;;;;;0.40;0.40;;;23.90;75.70;;;;;;4965730;28;20504;-74
2023/09/12 04:38:37;;;;;;;0.40;0.40;;;23.80;75.70;;;;;;4964550;28;20402;-74
2023/09/12 04:41:04;;;;;;;0.40;0.40;;;23.80;75.60;;;;;;4965808;28;20078;-74
2023/09/12 04:43:31;;;;;;;0.40;0.40;;;23.90;75.70;;;;;;4965030;28;20046;-74
2023/09/12 04:45:56;;;;;;;0.40;0.40;;;23.90;75.60;;;;;;4965083;28;20424;-74
2023/09/12 04:48:22;;;;;;;0.30;0.30;;;23.80;75.50;;;;;;4965233;28;20743;-74
2023/09/12 04:50:48;;;;;;;0.47;0.47;;;23.80;76.40;;;;;;4960938;28;20050;-74
2023/09/12 04:53:13;;;;;;;0.30;0.30;;;23.80;75.50;;;;;;4965713;28;20094;-74
2023/09/12 04:55:39;;;;;;;0.38;0.38;;;23.80;75.50;;;;;;4967520;28;20043;-74
2023/09/12 04:58:04;;;;;;;0.40;0.40;;;23.90;75.60;;;;;;4965771;28;20130;-74
2023/09/12 05:00:30;;;;;;;0.30;0.30;;;23.80;75.60;;;;;;4961896;28;20089;-75
2023/09/12 05:02:56;;;;;;;0.30;0.30;;;23.80;75.60;;;;;;4966386;28;20145;-75
2023/09/12 05:05:21;;;;;;;0.50;0.50;;;23.80;75.60;;;;;;4964167;28;20042;-75
2023/09/12 05:07:47;;;;;;;0.30;0.30;;;23.80;75.50;;;;;;4969043;28;20050;-75
2023/09/12 05:10:13;;;;;;;0.45;0.45;;;23.80;75.50;;;;;;4967683;28;20046;-75
2023/09/12 05:12:38;;;;;;;0.30;0.30;;;23.80;75.50;;;;;;4967050;28;20042;-75
2023/09/12 05:15:04;;;;;;;0.40;0.40;;;23.80;75.60;;;;;;4968080;28;20043;-75
2023/09/12 05:17:30;;;;;;;0.47;0.47;;;23.80;75.60;;;;;;4982118;28;20422;-74
2023/09/12 05:19:55;;;;;;;0.40;0.40;;;23.90;75.60;;;;;;4623279;28;10000815;-77
2023/09/12 05:22:21;;;;;;;0.40;0.40;;;23.90;75.60;;;;;;4963756;28;20582;-75
2023/09/12 05:24:47;;;;;;;0.30;0.30;;;23.90;75.80;;;;;;4964142;28;20034;-75
2023/09/12 05:27:12;;;;;;;0.35;0.35;;;23.80;75.80;;;;;;4963473;28;20477;-75
2023/09/12 05:29:38;;;;;;;0.40;0.40;;;23.80;75.90;;;;;;4963255;28;20085;-75
2023/09/12 05:32:04;;;;;;;0.52;0.52;;;23.80;75.80;;;;;;4963654;28;20073;-75
2023/09/12 05:34:30;;;;;;;0.95;0.45;;;23.90;75.80;;;;;;4961965;28;20628;-75
2023/09/12 05:36:56;;;;;;;0.40;0.40;;;23.80;75.70;;;;;;4960911;28;20043;-75
2023/09/12 05:39:22;;;;;;;1.85;0.60;;;23.80;75.70;;;;;;4964788;28;20062;-74
2023/09/12 05:41:48;;;;;;;1.70;0.82;;;23.90;75.70;;;;;;4961177;28;20552;-74
2023/09/12 05:44:17;;;;;;;1.45;1.35;;;23.90;74.80;;;;;;4961651;28;20058;-74
2023/09/12 05:46:46;;;;;;;1.55;1.45;;;23.70;74.00;;;;;;4964522;28;20050;-74
2023/09/12 05:49:12;;;;;;;1.83;1.73;;;23.60;73.50;;;;;;4959783;28;20050;-74
2023/09/12 05:51:38;;;;;;;1.58;1.52;;;23.50;73.20;;;;;;4962145;28;20113;-83
2023/09/12 05:54:04;;;;;;;2.20;2.00;;;23.40;74.30;;;;;;4961740;28;20042;-82
2023/09/12 05:56:29;;;;;;;2.20;1.70;;;23.30;74.30;;;;;;4959899;28;20042;-83
2023/09/12 05:58:55;;;;;;;2.00;1.80;;;23.50;73.80;;;;;;4963921;28;20050;-81
2023/09/12 06:01:20;;;;;;;1.80;1.70;;;23.40;73.50;;;;;;4956905;28;20045;-83
2023/09/12 06:03:46;;;;;;;1.92;1.83;;;23.30;73.60;;;;;;4942796;28;20405;-80
2023/09/12 06:06:11;;;;;;;2.05;1.95;;;23.30;73.60;;;;;;4955396;28;20054;-81
2023/09/12 06:08:37;;;;;;;1.98;1.73;;;23.30;73.40;;;;;;4963778;28;20081;-81
2023/09/12 06:11:03;;;;;;;1.58;1.45;;;23.30;73.30;;;;;;4966633;28;20123;-82
2023/09/12 06:13:29;;;;;;;1.77;1.67;;;23.20;73.30;;;;;;4960937;28;20030;-81
2023/09/12 06:15:54;;;;;;;1.80;1.70;;;23.20;73.40;;;;;;4963127;28;20062;-81
2023/09/12 06:18:20;;;;;;;1.90;1.77;;;23.20;73.40;;;;;;4961703;28;20047;-81
2023/09/12 06:20:46;;;;;;;1.70;1.60;;;23.20;73.50;;;;;;4963398;28;20042;-81
2023/09/12 06:23:11;;;;;;;2.60;1.55;;;23.10;73.40;;;;;;4958555;28;20031;-81
2023/09/12 06:25:37;;;;;;;1.48;1.38;;;23.10;73.80;;;;;;4965833;28;20027;-80
2023/09/12 06:28:03;;;;;;;1.40;1.30;;;23.20;74.20;;;;;;4965350;28;20098;-82
2023/09/12 06:30:28;;;;;;;1.50;0.90;;;23.20;74.30;;;;;;4962397;28;20047;-81
2023/09/12 06:32:54;;;;;;;1.00;0.88;;;23.30;74.50;;;;;;4966190;28;20485;-81
2023/09/12 06:35:19;;;;;;;3.50;1.05;;;23.30;74.80;;;;;;4965764;28;20117;-81
2023/09/12 06:37:47;;;;;;;1.27;0.82;;;23.40;74.90;;;;;;4968857;28;20093;-81
2023/09/12 06:40:12;;;;;;;1.38;0.98;;;23.40;74.90;;;;;;4967429;28;20047;-81
2023/09/12 06:42:38;;;;;;;1.00;1.00;;;23.40;74.80;;;;;;4966103;28;20406;-81
2023/09/12 06:45:04;;;;;;;1.52;1.20;;;23.40;74.80;;;;;;4968451;28;20049;-81
2023/09/12 06:47:29;;;;;;;1.42;1.10;;;23.40;74.90;;;;;;4968361;28;20039;-81
2023/09/12 06:49:55;;;;;;;1.55;1.45;;;23.40;75.00;;;;;;4966464;28;20086;-81
2023/09/12 06:52:20;;;;;;;0.90;0.90;;;23.50;75.00;;;;;;4968092;28;20054;-81
2023/09/12 06:54:46;;;;;;;1.00;1.00;;;23.50;75.00;;;;;;4963937;28;20501;-81
2023/09/12 06:57:11;;;;;;;1.30;0.80;;;23.50;75.10;;;;;;4968008;28;20038;-81
2023/09/12 06:59:37;;;;;;;0.85;0.85;;;23.50;75.10;;;;;;4967072;28;20447;-80
2023/09/12 07:02:03;;;;;;;1.08;0.98;;;23.50;75.10;;;;;;4968167;28;20396;-81
2023/09/12 07:04:29;;;;;;;0.68;0.68;;;23.50;75.20;;;;;;4967599;28;20050;-81
2023/09/12 07:06:55;;;;;;;2.33;1.05;;;23.50;75.20;;;;;;4966570;28;20055;-81
2023/09/12 07:09:20;;;;;;;0.70;0.70;;;23.50;75.20;;;;;;4968578;28;20054;-81
2023/09/12 07:11:47;;;;;;;0.82;0.82;;;23.50;75.10;;;;;;4963712;28;20062;-81
2023/09/12 07:14:13;;;;;;;2.58;0.80;;;23.50;75.10;;;;;;4965129;28;20065;-81
2023/09/12 07:16:39;;;;;;;0.70;0.70;;;23.50;75.20;;;;;;4968124;28;20038;-81
2023/09/12 07:19:04;;;;;;;0.70;0.70;;;23.50;75.20;;;;;;4967676;28;20042;-81
2023/09/12 07:21:31;;;;;;;0.80;0.80;;;23.50;75.20;;;;;;4961371;28;20086;-81
2023/09/12 07:23:57;;;;;;;0.85;0.70;;;23.50;75.20;;;;;;4964938;28;20054;-81
2023/09/12 07:26:23;;;;;;;0.85;0.85;;;23.60;75.20;;;;;;4967104;28;20058;-81
2023/09/12 07:28:48;;;;;;;0.60;0.60;;;23.60;75.20;;;;;;4966994;28;20038;-81
2023/09/12 07:31:14;;;;;;;1.05;0.63;;;23.60;76.00;;;;;;4965963;28;20331;-81
2023/09/12 07:33:40;;;;;;;0.70;0.70;;;23.50;75.30;;;;;;4966820;28;20436;-81
2023/09/12 07:36:06;;;;;;;0.90;0.90;;;23.60;75.40;;;;;;4967648;28;20039;-81
2023/09/12 07:38:32;;;;;;;0.60;0.60;;;23.60;75.50;;;;;;4964460;28;20053;-81
2023/09/12 07:40:58;;;;;;;0.68;0.68;;;23.60;75.50;;;;;;4965434;28;20039;-81
2023/09/12 07:43:24;;;;;;;0.50;0.50;;;23.60;75.50;;;;;;4963715;28;20098;-81
2023/09/12 07:45:54;;;;;;;0.80;0.80;;;23.60;75.50;;;;;;4965878;28;20031;-81
2023/09/12 07:48:20;;;;;;;1.10;0.70;;;23.60;75.50;;;;;;4966984;28;20050;-81
2023/09/12 07:50:45;;;;;;;0.60;0.60;;;23.60;75.50;;;;;;4953862;28;20050;-80
2023/09/12 07:53:11;;;;;;;0.95;0.57;;;23.60;75.50;;;;;;4965852;28;20046;-81
2023/09/12 07:55:45;;;;;;;0.88;0.88;;;23.60;75.60;;;;;;4967819;28;20054;-81
2023/09/12 07:58:11;;;;;;;;;;;23.60;75.50;;;;;;4966194;28;20468;-81
2023/09/12 08:00:37;;;;;;;0.60;0.60;;;23.60;75.60;;;;;;4966685;28;20442;-81
2023/09/12 08:03:02;;;;;;;0.50;0.50;;;23.60;75.70;;;;;;4964678;28;20047;-81
2023/09/12 08:05:28;;;;;;;0.70;0.70;;;23.60;75.60;;;;;;4965989;28;20141;-81
2023/09/12 08:07:54;;;;;;;0.60;0.60;;;23.60;75.60;;;;;;4965226;28;20051;-81
2023/09/12 08:10:19;;;;;;;1.40;0.85;;;23.60;75.60;;;;;;4964193;28;20042;-81
2023/09/12 08:12:45;;;;;;;0.90;0.60;;;23.60;75.60;;;;;;4963273;28;20070;-81
2023/09/12 08:15:11;;;;;;;0.50;0.50;;;23.60;75.60;;;;;;4963214;28;20055;-81
2023/09/12 08:17:36;;;;;;;0.60;0.60;;;23.60;75.50;;;;;;4965378;28;20586;-81
2023/09/12 08:20:02;;;;;;;2.75;0.88;;;23.60;75.60;;;;;;4963561;28;20113;-81
2023/09/12 08:22:28;;;;;;;1.90;0.55;;;23.60;75.70;;;;;;4965001;28;20055;-81
2023/09/12 08:24:53;;;;;;;0.60;0.60;;;23.60;75.60;;;;;;4965578;28;20513;-81
2023/09/12 08:27:20;;;;;;;0.70;0.57;;;23.60;75.60;;;;;;4966454;28;20043;-81
2023/09/12 08:29:48;;;;;;;0.43;0.38;;;23.60;75.70;;;;;;4965747;28;20086;-80
2023/09/12 08:32:13;;;;;;;0.57;0.57;;;23.60;75.70;;;;;;4963174;28;20129;-81
2023/09/12 08:34:40;;;;;;;0.70;0.70;;;23.70;75.80;;;;;;4965169;28;20078;-80
2023/09/12 08:37:06;;;;;;;0.60;0.60;;;23.60;75.80;;;;;;4968121;28;20094;-81
2023/09/12 08:39:41;;;;;;;0.60;0.60;;;23.60;75.70;;;;;;4970673;28;20053;-81
2023/09/12 08:42:07;;;;;;;0.52;0.52;;;23.70;75.70;;;;;;4968442;28;20050;-81
2023/09/12 08:44:32;;;;;;;0.52;0.52;;;23.60;75.70;;;;;;4968582;28;20055;-81
2023/09/12 08:46:58;;;;;;;0.50;0.50;;;23.70;75.70;;;;;;4966171;28;20046;-81
2023/09/12 08:49:24;;;;;;;0.60;0.60;;;23.70;75.70;;;;;;4970497;28;20182;-81
2023/09/12 08:51:49;;;;;;;0.60;0.60;;;23.70;75.70;;;;;;4969559;28;20053;-81
2023/09/12 08:54:15;;;;;;;0.50;0.50;;;23.70;75.80;;;;;;4970453;28;20050;-81
2023/09/12 08:56:42;;;;;;;0.50;0.50;;;23.70;75.70;;;;;;4968410;28;20121;-81
2023/09/12 08:59:07;;;;;;;0.50;0.40;;;23.70;75.70;;;;;;4966533;28;20059;-81
2023/09/12 09:01:33;;;;;;;0.52;0.52;;;23.70;75.50;;;;;;4968575;28;20042;-81
2023/09/12 09:04:00;;;;;;;0.50;0.50;;;23.80;75.50;;;;;;4948426;28;20050;-81
2023/09/12 09:06:25;;;;;;;0.73;0.70;;;23.80;75.50;;;;;;4976537;28;20047;-82
2023/09/12 09:08:51;;;;;;;1.75;0.50;;;23.80;75.40;;;;;;4946822;28;20129;-81
2023/09/12 09:11:16;;;;;;;0.75;0.40;;;23.80;75.60;;;;;;4969899;28;20047;-82
2023/09/12 09:13:42;;;;;;;0.60;0.60;;;23.80;75.90;;;;;;4970288;28;20393;-78
2023/09/12 09:16:26;;;;;;;0.95;0.95;;;23.80;75.60;;;;;;4968086;28;20124;-82
2023/09/12 09:19:01;;;;;;;0.40;0.40;;;23.90;75.90;;;;;;4964955;28;20047;-81
2023/09/12 09:21:31;;;;;;;0.60;0.60;;;23.90;75.80;;;;;;4963709;28;20042;-80
2023/09/12 09:24:08;;;;;;;0.60;0.60;;;23.90;76.30;;;;;;4981599;28;20043;-80
2023/09/12 09:26:44;;;;;;;0.60;0.60;;;23.90;75.70;;;;;;4966899;28;20062;-80
2023/09/12 09:29:10;;;;;;;0.88;0.88;;;23.90;76.80;;;;;;4966991;28;20565;-80
2023/09/12 09:31:39;;;;;;;0.70;0.70;;;23.90;76.10;;;;;;4966291;28;20077;-80
2023/09/12 09:34:05;;;;;;;32.35;16.30;;;23.90;76.20;;;;;;4963798;28;20066;-79
2023/09/12 09:36:31;;;;;;;85.47;46.75;;;24.00;76.20;;;;;;4964824;28;20115;-81
2023/09/12 09:38:59;;;;;;;452.98;291.10;;;23.90;75.70;;;;;;4967341;28;20421;-80
2023/09/12 09:41:24;;;;;;;537.90;349.20;;;23.80;76.10;;;;;;4967558;28;21108;-80
2023/09/12 09:43:51;;;;;;;583.70;387.45;;;23.80;76.50;;;;;;4969682;28;20061;-80
2023/09/12 09:46:17;;;;;;;526.78;346.55;;;23.80;76.40;;;;;;4968031;28;20085;-81
2023/09/12 09:48:49;;;;;;;316.40;207.10;;;23.80;75.90;;;;;;4966165;28;20039;-80
2023/09/12 09:51:14;;;;;;;200.25;127.28;;;23.80;75.50;;;;;;4965599;28;20054;-78
2023/09/12 09:53:40;;;;;;;102.53;63.05;;;23.70;75.40;;;;;;4967412;28;20385;-79
2023/09/12 09:56:12;;;;;;;57.00;38.60;;;23.50;75.10;;;;;;4969382;28;20051;-79
2023/09/12 09:58:48;;;;;;;43.60;28.60;;;23.40;75.60;;;;;;4963746;28;20049;-80
2023/09/12 10:01:16;;;;;;;35.63;25.27;;;23.40;75.70;;;;;;4960826;28;20062;-80
2023/09/12 10:03:42;;;;;;;28.75;19.83;;;23.50;75.50;;;;;;4961543;28;20049;-80
2023/09/12 10:06:07;;;;;;;25.08;17.85;;;23.40;75.50;;;;;;4958739;28;20054;-79
2023/09/12 10:08:33;;;;;;;18.67;13.20;;;23.50;75.90;;;;;;4977661;28;20065;-77
2023/09/12 10:10:59;;;;;;;13.07;10.70;;;23.40;76.10;;;;;;4948351;28;20098;-80
2023/09/12 10:13:26;;;;;;;9.88;8.07;;;23.30;76.10;;;;;;4964561;28;20047;-80
2023/09/12 10:15:52;;;;;;;7.35;6.55;;;23.30;76.20;;;;;;4958453;28;20047;-81
2023/09/12 10:18:19;;;;;;;6.80;5.65;;;23.20;76.50;;;;;;4960027;28;20444;-83
2023/09/12 10:20:49;;;;;;;5.65;4.97;;;23.20;76.90;;;;;;4962830;28;20051;-82
2023/09/12 10:23:19;;;;;;;4.15;3.83;;;23.30;77.10;;;;;;4963298;28;20740;-82
2023/09/12 10:25:45;;;;;;;3.20;2.90;;;23.30;77.10;;;;;;4962651;28;20049;-82
2023/09/12 10:28:11;;;;;;;4.97;3.30;;;23.50;76.90;;;;;;4962159;28;20038;-82
2023/09/12 10:30:36;;;;;;;4.88;4.47;;;23.50;76.60;;;;;;4962115;28;20109;-80
2023/09/12 10:33:03;;;;;;;5.85;5.32;;;23.50;76.40;;;;;;4962352;28;20504;-81
2023/09/12 10:35:30;;;;;;;6.35;5.82;;;23.60;76.30;;;;;;4959833;28;20122;-80
2023/09/12 10:37:55;;;;;;;5.85;5.35;;;23.70;76.70;;;;;;4961652;28;20039;-80
2023/09/12 10:40:21;;;;;;;6.22;5.63;;;23.70;76.70;;;;;;4959573;28;20390;-80
2023/09/12 10:42:46;;;;;;;5.40;4.88;;;23.80;77.20;;;;;;4963234;28;20035;-81
2023/09/12 10:45:13;;;;;;;6.10;5.57;;;23.80;77.30;;;;;;4964200;28;20063;-82
2023/09/12 10:47:38;;;;;;;6.40;5.90;;;23.80;76.80;;;;;;4962129;28;20030;-81
2023/09/12 10:50:05;;;;;;;6.13;5.53;;;23.80;77.40;;;;;;4967542;28;20598;-81
2023/09/12 10:52:30;;;;;;;6.97;6.25;;;23.90;77.50;;;;;;4965030;28;20031;-82
2023/09/12 10:54:56;;;;;;;6.95;6.35;;;23.90;77.20;;;;;;4978864;28;20659;-81
2023/09/12 10:57:21;;;;;;;8.55;7.68;;;23.90;76.50;;;;;;4966645;28;20118;-81
2023/09/12 10:59:59;;;;;;;10.95;8.50;;;23.90;76.60;;;;;;4966540;28;20641;-81
2023/09/12 11:02:38;;;;;;;9.90;8.55;;;23.90;76.00;;;;;;4964560;28;20047;-81
2023/09/12 11:05:07;;;;;;;8.55;7.75;;;23.90;76.50;;;;;;4963402;28;20097;-81
2023/09/12 11:07:33;;;;;;;7.80;7.05;;;23.90;75.20;;;;;;4960657;28;20082;-81
2023/09/12 11:10:15;;;;;;;7.72;6.55;;;23.90;75.00;;;;;;4964129;28;20065;-81
2023/09/12 11:12:40;;;;;;;7.13;6.45;;;23.90;75.60;;;;;;4966884;28;20046;-82
2023/09/12 11:15:06;;;;;;;6.78;6.07;;;23.90;76.20;;;;;;4963010;28;20073;-82
2023/09/12 11:17:37;;;;;;;7.13;6.43;;;23.90;75.90;;;;;;4967838;28;20053;-82
2023/09/12 11:20:13;;;;;;;6.88;6.18;;;23.90;76.10;;;;;;4967790;28;20463;-82
2023/09/12 11:22:43;;;;;;;5.88;5.38;;;23.90;75.90;;;;;;4964468;28;20413;-82
2023/09/12 11:25:19;;;;;;;6.10;5.60;;;23.90;76.10;;;;;;4967635;28;20035;-81
2023/09/12 11:27:45;;;;;;;6.75;6.05;;;24.00;76.80;;;;;;4967675;28;20065;-82
2023/09/12 11:30:11;;;;;;;7.13;6.45;;;23.90;76.00;;;;;;4966865;28;20057;-82
2023/09/12 11:32:37;;;;;;;6.22;5.68;;;23.90;76.00;;;;;;4964300;28;20039;-82
2023/09/12 11:35:06;;;;;;;6.60;6.10;;;23.90;76.00;;;;;;4968245;28;20046;-81
2023/09/12 11:37:33;;;;;;;6.88;6.18;;;23.90;75.90;;;;;;4966181;28;20529;-82
2023/09/12 11:39:59;;;;;;;8.48;7.60;;;23.90;75.70;;;;;;4967366;28;20350;-81
2023/09/12 11:42:25;;;;;;;9.25;7.25;;;23.90;76.00;;;;;;4966771;28;21146;-82
2023/09/12 11:44:51;;;;;;;7.20;6.50;;;24.00;76.00;;;;;;4967160;28;20069;-82
2023/09/12 11:47:16;;;;;;;8.50;7.70;;;24.00;76.00;;;;;;4966847;28;20591;-82
2023/09/12 11:49:42;;;;;;;9.57;8.57;;;24.00;76.20;;;;;;4968307;28;20129;-83
2023/09/12 11:52:16;;;;;;;9.45;8.50;;;24.00;76.20;;;;;;4966311;28;20047;-83
2023/09/12 11:54:42;;;;;;;;;;;24.00;75.90;;;;;;4967873;28;20050;-83
2023/09/12 11:57:11;;;;;;;10.77;9.30;;;24.00;75.80;;;;;;4966303;28;19918;-83
2023/09/12 11:59:43;;;;;;;13.02;9.32;;;24.00;75.90;;;;;;4980337;28;20089;-83
2023/09/12 12:02:09;;;;;;;11.45;9.90;;;24.00;75.70;;;;;;4967271;28;20733;-83
2023/09/12 12:04:34;;;;;;;12.98;10.65;;;24.00;75.60;;;;;;4968814;28;20047;-83
2023/09/12 12:07:01;;;;;;;11.18;9.98;;;24.00;75.60;;;;;;4957734;28;20089;-83
2023/09/12 12:09:26;;;;;;;10.93;9.43;;;24.00;75.60;;;;;;4980125;28;20039;-83
2023/09/12 12:11:52;;;;;;;11.02;9.55;;;24.00;75.70;;;;;;4965968;28;20043;-82
2023/09/12 12:14:19;;;;;;;12.32;9.50;;;24.00;75.90;;;;;;4969517;28;20078;-83
2023/09/12 12:16:45;;;;;;;10.35;8.98;;;24.00;75.60;;;;;;4968395;28;20065;-83
2023/09/12 12:19:11;;;;;;;10.82;9.73;;;24.10;75.60;;;;;;4968397;28;20043;-84
2023/09/12 12:21:46;;;;;;;10.98;9.63;;;24.10;75.80;;;;;;4967793;28;20054;-84
2023/09/12 12:24:13;;;;;;;12.30;10.10;;;24.10;75.60;;;;;;4968052;28;20038;-84
2023/09/12 12:26:42;;;;;;;11.18;10.07;;;24.10;75.60;;;;;;4952907;28;20069;-84
2023/09/12 12:29:08;;;;;;;10.55;9.48;;;24.10;75.50;;;;;;4966915;28;20516;-82
2023/09/12 12:31:34;;;;;;;12.57;10.07;;;24.10;75.40;;;;;;4970751;28;20202;-84
2023/09/12 12:33:59;;;;;;;11.73;10.13;;;24.10;75.40;;;;;;4966378;28;20130;-82
2023/09/12 12:36:25;;;;;;;10.80;9.70;;;24.10;75.50;;;;;;4965890;28;20074;-84
2023/09/12 12:38:51;;;;;;;12.52;10.20;;;24.10;75.50;;;;;;4968327;28;20070;-83
2023/09/12 12:41:23;;;;;;;12.00;10.77;;;24.10;75.50;;;;;;4964137;28;20137;-83